createdAt,value
2022-11-03T00:01:37.446Z,1.60
2022-11-03T00:04:06.118Z,1.50
2022-11-03T00:06:34.054Z,1.90
2022-11-03T00:09:03.219Z,1.77
2022-11-03T00:11:33.666Z,1.37
2022-11-03T00:14:01.713Z,2.07
2022-11-03T00:16:29.429Z,2.17
2022-11-03T00:18:58.597Z,1.30
2022-11-03T00:21:26.473Z,1.70
2022-11-03T00:23:54.356Z,1.07
2022-11-03T00:26:23.489Z,2.40
2022-11-03T00:28:53.207Z,1.50
2022-11-03T00:31:23.856Z,1.93
2022-11-03T00:33:52.229Z,1.60
2022-11-03T00:36:23.307Z,1.57
2022-11-03T00:38:51.734Z,1.60
2022-11-03T00:41:20.814Z,1.87
2022-11-03T00:43:49.277Z,1.50
2022-11-03T00:46:17.721Z,1.50
2022-11-03T00:48:45.731Z,1.70
2022-11-03T00:51:16.165Z,1.80
2022-11-03T00:53:46.790Z,1.80
2022-11-03T00:56:16.392Z,2.30
2022-11-03T00:58:44.584Z,1.30
2022-11-03T01:01:14.012Z,1.83
2022-11-03T01:04:03.569Z,1.50
2022-11-03T01:06:50.090Z,2.10
2022-11-03T01:09:20.290Z,2.10
2022-11-03T01:11:56.709Z,1.90
2022-11-03T01:14:25.395Z,1.77
2022-11-03T01:16:53.240Z,1.53
2022-11-03T01:19:21.610Z,2.23
2022-11-03T01:21:49.423Z,1.53
2022-11-03T01:24:17.428Z,1.70
2022-11-03T01:26:46.524Z,1.83
2022-11-03T01:29:14.255Z,1.77
2022-11-03T01:31:42.221Z,1.70
2022-11-03T01:34:13.568Z,1.63
2022-11-03T01:36:41.256Z,1.97
2022-11-03T01:39:11.601Z,1.60
2022-11-03T01:41:39.607Z,2.00
2022-11-03T01:44:33.653Z,1.83
2022-11-03T01:47:07.579Z,2.03
2022-11-03T01:49:41.618Z,1.77
2022-11-03T01:52:14.515Z,1.50
2022-11-03T01:54:45.752Z,2.87
2022-11-03T01:57:17.023Z,1.97
2022-11-03T01:59:48.190Z,1.60
2022-11-03T02:02:16.433Z,1.67
2022-11-03T02:04:44.998Z,1.90
2022-11-03T02:07:20.887Z,2.53
2022-11-03T02:09:48.642Z,2.00
2022-11-03T02:12:18.157Z,2.20
2022-11-03T02:14:53.261Z,2.53
2022-11-03T02:17:22.780Z,2.20
2022-11-03T02:19:53.705Z,2.00
2022-11-03T02:22:52.138Z,2.23
2022-11-03T02:25:34.355Z,2.27
2022-11-03T02:28:02.910Z,2.30
2022-11-03T02:30:48.244Z,2.40
2022-11-03T02:33:27.384Z,2.53
2022-11-03T02:36:00.511Z,3.17
2022-11-03T02:38:31.690Z,2.17
2022-11-03T02:41:04.456Z,3.50
2022-11-03T02:43:32.938Z,2.00
2022-11-03T02:46:01.969Z,2.10
2022-11-03T02:48:30.282Z,2.20
2022-11-03T02:50:58.005Z,2.07
2022-11-03T02:53:28.796Z,2.03
2022-11-03T02:56:04.016Z,1.63
2022-11-03T02:58:37.342Z,2.37
2022-11-03T03:01:15.126Z,2.40
2022-11-03T03:03:48.081Z,2.57
2022-11-03T03:06:20.495Z,1.57
2022-11-03T03:08:52.710Z,2.30
2022-11-03T03:11:37.435Z,1.87
2022-11-03T03:14:11.072Z,2.47
2022-11-03T03:16:55.327Z,1.60
2022-11-03T03:19:37.036Z,1.87
2022-11-03T03:22:13.407Z,2.20
2022-11-03T03:24:49.086Z,1.43
2022-11-03T03:27:21.711Z,1.83
2022-11-03T03:29:53.746Z,1.50
2022-11-03T03:32:25.339Z,1.77
2022-11-03T03:34:54.978Z,2.00
2022-11-03T03:37:25.941Z,1.63
2022-11-03T03:39:56.936Z,1.50
2022-11-03T03:42:29.475Z,2.27
2022-11-03T03:44:59.365Z,2.33
2022-11-03T03:47:30.554Z,1.70
2022-11-03T03:49:58.789Z,1.50
2022-11-03T03:52:26.899Z,1.30
2022-11-03T03:54:55.630Z,2.10
2022-11-03T03:57:26.199Z,1.80
2022-11-03T03:59:53.936Z,1.77
2022-11-03T04:02:21.739Z,1.90
2022-11-03T04:04:49.556Z,1.87
2022-11-03T04:07:37.819Z,1.90
2022-11-03T04:10:09.150Z,1.93
2022-11-03T04:12:55.996Z,1.80
2022-11-03T04:15:41.268Z,1.80
2022-11-03T04:18:25.830Z,1.67
2022-11-03T04:21:11.119Z,1.97
2022-11-03T04:23:38.910Z,1.70
2022-11-03T04:26:11.414Z,2.27
2022-11-03T04:28:41.069Z,1.50
2022-11-03T04:31:11.718Z,1.70
2022-11-03T04:33:40.037Z,2.00
2022-11-03T04:36:13.456Z,1.97
2022-11-03T04:38:41.170Z,1.53
2022-11-03T04:41:16.401Z,2.43
2022-11-03T04:43:46.958Z,1.80
2022-11-03T04:46:19.174Z,1.80
2022-11-03T04:48:47.549Z,1.83
2022-11-03T04:51:17.582Z,2.20
2022-11-03T04:53:49.623Z,2.63
2022-11-03T04:56:21.170Z,1.80
2022-11-03T04:58:50.423Z,2.20
2022-11-03T05:01:24.340Z,1.67
2022-11-03T05:03:54.658Z,1.20
2022-11-03T05:06:23.806Z,2.00
2022-11-03T05:08:56.117Z,1.70
2022-11-03T05:11:29.449Z,2.00
2022-11-03T05:14:02.547Z,1.80
2022-11-03T05:16:32.544Z,1.80
2022-11-03T05:19:00.796Z,2.20
2022-11-03T05:21:29.296Z,1.80
2022-11-03T05:23:59.349Z,1.80
2022-11-03T05:26:30.694Z,2.37
2022-11-03T05:29:01.726Z,1.80
2022-11-03T05:31:31.549Z,1.80
2022-11-03T05:34:00.663Z,2.07
2022-11-03T05:36:31.388Z,1.73
2022-11-03T05:39:13.617Z,1.80
2022-11-03T05:41:41.361Z,1.67
2022-11-03T05:44:26.035Z,1.53
2022-11-03T05:46:54.068Z,1.90
2022-11-03T05:49:22.360Z,2.33
2022-11-03T05:51:50.478Z,1.60
2022-11-03T05:54:27.222Z,2.40
2022-11-03T05:56:56.542Z,1.80
2022-11-03T05:59:29.194Z,2.17
2022-11-03T06:02:01.056Z,2.20
2022-11-03T06:04:33.656Z,2.13
2022-11-03T06:07:06.301Z,2.43
2022-11-03T06:09:35.514Z,2.10
2022-11-03T06:12:06.604Z,1.90
2022-11-03T06:14:37.667Z,1.80
2022-11-03T06:17:07.249Z,1.83
2022-11-03T06:19:39.168Z,1.90
2022-11-03T06:22:16.418Z,2.10
2022-11-03T06:24:45.448Z,2.00
2022-11-03T06:27:15.231Z,2.20
2022-11-03T06:29:49.788Z,2.50
2022-11-03T06:32:17.704Z,2.27
2022-11-03T06:34:48.237Z,2.57
2022-11-03T06:37:26.610Z,2.23
2022-11-03T06:40:00.533Z,3.93
2022-11-03T06:42:32.426Z,7.30
2022-11-03T06:45:03.622Z,7.17
2022-11-03T06:47:32.300Z,4.20
2022-11-03T06:50:01.423Z,2.90
2022-11-03T06:52:32.329Z,3.90
2022-11-03T06:55:20.489Z,2.43
2022-11-03T06:57:49.652Z,2.80
2022-11-03T07:00:41.019Z,2.50
2022-11-03T07:03:14.485Z,6.77
2022-11-03T07:05:42.928Z,6.37
2022-11-03T07:08:23.353Z,8.37
2022-11-03T07:10:52.586Z,5.53
2022-11-03T07:13:24.595Z,5.93
2022-11-03T07:15:53.713Z,5.73
2022-11-03T07:18:25.064Z,4.20
2022-11-03T07:20:53.619Z,4.20
2022-11-03T07:23:25.544Z,4.17
2022-11-03T07:25:55.435Z,3.53
2022-11-03T07:28:27.602Z,3.20
2022-11-03T07:30:56.666Z,2.70
2022-11-03T07:33:28.404Z,2.30
2022-11-03T07:36:14.888Z,2.73
2022-11-03T07:38:45.325Z,2.47
2022-11-03T07:41:19.411Z,2.47
2022-11-03T07:43:52.503Z,2.27
2022-11-03T07:46:22.905Z,2.63
2022-11-03T07:48:52.957Z,1.73
2022-11-03T07:51:23.481Z,2.33
2022-11-03T07:53:53.055Z,2.43
2022-11-03T07:56:23.187Z,2.10
2022-11-03T07:58:53.286Z,2.00
2022-11-03T08:01:27.234Z,2.03
2022-11-03T08:03:59.523Z,1.90
2022-11-03T08:06:27.372Z,2.30
2022-11-03T08:08:55.098Z,1.70
2022-11-03T08:11:27.787Z,2.10
2022-11-03T08:13:57.534Z,2.10
2022-11-03T08:16:26.799Z,1.70
2022-11-03T08:18:54.611Z,1.80
2022-11-03T08:21:22.359Z,1.80
2022-11-03T08:23:50.131Z,2.23
2022-11-03T08:26:17.929Z,1.90
2022-11-03T08:28:45.688Z,1.80
2022-11-03T08:31:13.567Z,1.77
2022-11-03T08:33:42.827Z,2.20
2022-11-03T08:36:11.198Z,2.07
2022-11-03T08:38:39.295Z,2.13
2022-11-03T08:41:07.152Z,2.37
2022-11-03T08:43:34.866Z,2.10
2022-11-03T08:46:08.317Z,2.13
2022-11-03T08:48:42.854Z,1.57
2022-11-03T08:51:13.373Z,1.83
2022-11-03T08:53:42.497Z,2.27
2022-11-03T08:56:12.838Z,1.73
2022-11-03T08:58:43.258Z,2.17
2022-11-03T09:01:11.382Z,1.77
2022-11-03T09:03:39.290Z,1.60
2022-11-03T09:06:09.328Z,1.93
2022-11-03T09:11:25.830Z,2.00
2022-11-03T09:13:53.583Z,1.63
2022-11-03T09:16:21.317Z,2.07
2022-11-03T09:18:49.059Z,1.97
2022-11-03T09:21:18.403Z,2.13
2022-11-03T09:23:46.234Z,2.63
2022-11-03T09:26:13.945Z,1.70
2022-11-03T09:28:41.661Z,2.00
2022-11-03T09:31:09.355Z,1.80
2022-11-03T09:33:37.178Z,2.30
2022-11-03T09:36:05.651Z,2.10
2022-11-03T09:38:34.749Z,2.50
2022-11-03T09:41:06.745Z,2.03
2022-11-03T09:43:41.679Z,2.00
2022-11-03T09:46:09.413Z,2.73
2022-11-03T09:48:37.225Z,2.00
2022-11-03T09:51:05.275Z,2.50
2022-11-03T09:53:34.336Z,2.37
2022-11-03T09:56:02.068Z,2.23
2022-11-03T09:58:29.946Z,1.73
2022-11-03T10:00:57.722Z,1.60
2022-11-03T10:03:25.451Z,1.60
2022-11-03T10:05:53.486Z,2.27
2022-11-03T10:08:24.407Z,2.00
2022-11-03T10:10:53.862Z,2.23
2022-11-03T10:13:27.262Z,2.27
2022-11-03T10:15:55.182Z,2.50
2022-11-03T10:18:22.905Z,2.47
2022-11-03T10:20:50.807Z,2.17
2022-11-03T10:23:18.544Z,1.83
2022-11-03T10:25:47.266Z,2.17
2022-11-03T10:28:18.944Z,2.30
2022-11-03T10:31:11.441Z,2.53
2022-11-03T10:33:40.659Z,2.30
2022-11-03T10:36:24.901Z,1.70
2022-11-03T10:38:52.745Z,2.27
2022-11-03T10:41:21.797Z,2.03
2022-11-03T10:44:04.384Z,1.97
2022-11-03T10:49:21.503Z,2.10
2022-11-03T10:51:51.362Z,1.97
2022-11-03T10:54:20.941Z,2.03
2022-11-03T10:56:50.781Z,2.37
2022-11-03T10:59:22.930Z,1.73
2022-11-03T11:01:51.113Z,2.20
2022-11-03T11:04:20.508Z,1.97
2022-11-03T11:06:49.363Z,2.30
2022-11-03T11:09:20.850Z,2.40
2022-11-03T11:12:03.180Z,1.90
2022-11-03T11:14:52.030Z,2.00
2022-11-03T11:17:46.597Z,3.07
2022-11-03T11:20:38.845Z,1.93
2022-11-03T11:23:48.852Z,2.00
2022-11-03T11:26:30.358Z,2.90
2022-11-03T11:29:44.227Z,2.40
2022-11-03T11:32:51.992Z,2.23
2022-11-03T11:35:59.651Z,2.13
2022-11-03T11:38:57.503Z,2.73
2022-11-03T11:42:06.038Z,2.30
2022-11-03T11:44:59.783Z,2.70
2022-11-03T11:47:31.260Z,2.50
2022-11-03T11:50:36.016Z,2.37
2022-11-03T11:53:13.446Z,2.00
2022-11-03T11:55:46.554Z,2.10
2022-11-03T11:58:20.831Z,2.37
2022-11-03T12:01:00.632Z,1.90
2022-11-03T12:03:35.803Z,2.07
2022-11-03T12:06:04.254Z,2.20
2022-11-03T12:08:33.065Z,2.43
2022-11-03T12:11:03.914Z,2.43
2022-11-03T12:13:49.335Z,1.97
2022-11-03T12:16:34.377Z,1.90
2022-11-03T12:19:40.857Z,2.47
2022-11-03T12:22:10.895Z,2.37
2022-11-03T12:24:50.518Z,3.00
2022-11-03T12:27:36.086Z,2.30
2022-11-03T12:30:06.060Z,2.10
2022-11-03T12:32:35.295Z,2.30
2022-11-03T12:35:03.926Z,2.10
2022-11-03T12:37:31.675Z,2.23
2022-11-03T12:39:59.389Z,2.27
2022-11-03T12:42:28.558Z,2.57
2022-11-03T12:44:56.282Z,2.50
2022-11-03T12:47:24.433Z,2.57
2022-11-03T12:49:52.165Z,2.40
2022-11-03T12:52:20.016Z,2.07
2022-11-03T12:54:47.742Z,2.17
2022-11-03T12:57:15.518Z,2.17
2022-11-03T12:59:44.734Z,1.73
2022-11-03T13:02:12.807Z,2.37
2022-11-03T13:04:40.697Z,2.37
2022-11-03T13:07:08.415Z,2.40
2022-11-03T13:09:36.811Z,2.00
2022-11-03T13:12:22.839Z,2.33
2022-11-03T13:14:52.056Z,2.20
2022-11-03T13:17:19.824Z,1.90
2022-11-03T13:19:49.350Z,2.07
2022-11-03T13:22:22.186Z,2.43
2022-11-03T13:24:49.932Z,2.60
2022-11-03T13:27:17.696Z,2.17
2022-11-03T13:29:45.452Z,2.33
2022-11-03T13:32:14.591Z,2.20
2022-11-03T13:34:42.352Z,1.80
2022-11-03T13:37:10.031Z,2.10
2022-11-03T13:39:37.759Z,1.77
2022-11-03T13:42:05.566Z,2.03
2022-11-03T13:44:33.285Z,2.30
2022-11-03T13:47:00.990Z,2.13
2022-11-03T13:50:12.547Z,2.90
2022-11-03T13:52:17.726Z,2.17
2022-11-03T14:00:22.854Z,2.27
2022-11-03T14:05:40.166Z,1.90
2022-11-03T14:08:08.264Z,1.90
2022-11-03T14:10:36.152Z,1.70
2022-11-03T14:13:02.915Z,2.17
2022-11-03T14:15:30.792Z,2.57
2022-11-03T14:17:58.583Z,2.60
2022-11-03T14:23:00.300Z,2.53
2022-11-03T14:25:28.097Z,2.57
2022-11-03T14:27:55.892Z,2.30
2022-11-03T14:30:23.791Z,1.93
2022-11-03T14:32:56.745Z,1.83
2022-11-03T14:35:27.012Z,2.17
2022-11-03T14:37:54.822Z,2.33
2022-11-03T14:40:41.392Z,2.33
2022-11-03T14:43:09.524Z,2.83
2022-11-03T14:45:39.877Z,2.30
2022-11-03T14:48:10.464Z,2.33
2022-11-03T14:50:38.263Z,2.03
2022-11-03T14:53:05.997Z,2.30
2022-11-03T14:55:35.105Z,2.07
2022-11-03T14:58:02.885Z,2.60
2022-11-03T15:00:30.636Z,2.80
2022-11-03T15:02:58.412Z,2.63
2022-11-03T15:05:43.661Z,2.50
2022-11-03T15:08:11.484Z,2.80
2022-11-03T15:10:40.949Z,2.70
2022-11-03T15:13:09.476Z,2.80
2022-11-03T15:15:37.514Z,2.80
2022-11-03T15:18:05.588Z,2.87
2022-11-03T15:20:35.393Z,3.03
2022-11-03T15:25:52.782Z,2.70
2022-11-03T15:28:21.888Z,2.63
2022-11-03T15:30:49.649Z,2.87
2022-11-03T15:33:17.399Z,6.97
2022-11-03T15:35:45.247Z,2.57
2022-11-03T15:38:13.402Z,3.00
2022-11-03T15:40:41.193Z,3.03
2022-11-03T15:43:10.281Z,2.73
2022-11-03T15:45:37.996Z,3.40
2022-11-03T15:48:06.032Z,2.93
2022-11-03T15:50:33.818Z,3.20
2022-11-03T15:53:01.616Z,2.90
2022-11-03T15:55:29.360Z,3.00
2022-11-03T15:57:57.060Z,2.27
2022-11-03T16:00:26.324Z,2.37
2022-11-03T16:02:54.243Z,2.53
2022-11-03T16:05:25.129Z,2.00
2022-11-03T16:07:53.768Z,2.10
2022-11-03T16:10:21.547Z,2.37
2022-11-03T16:12:49.368Z,2.37
2022-11-03T16:15:17.347Z,2.87
2022-11-03T16:17:46.460Z,2.60
2022-11-03T16:20:14.314Z,2.73
2022-11-03T16:22:42.199Z,2.80
2022-11-03T16:25:12.912Z,3.70
2022-11-03T16:27:42.701Z,3.50
2022-11-03T16:30:12.614Z,3.07
2022-11-03T16:32:40.482Z,2.77
2022-11-03T16:35:10.154Z,2.93
2022-11-03T16:37:37.987Z,3.07
2022-11-03T16:40:06.901Z,2.73
2022-11-03T16:42:38.359Z,3.00
2022-11-03T16:45:08.429Z,2.97
2022-11-03T16:47:36.159Z,2.97
2022-11-03T16:50:03.936Z,2.67
2022-11-03T16:52:33.105Z,2.70
2022-11-03T16:55:00.846Z,2.60
2022-11-03T16:57:28.594Z,3.10
2022-11-03T16:59:56.364Z,3.20
2022-11-03T17:02:24.135Z,4.00
2022-11-03T17:04:52.016Z,3.27
2022-11-03T17:07:19.901Z,3.73
2022-11-03T17:09:49.362Z,3.40
2022-11-03T17:12:17.122Z,2.73
2022-11-03T17:14:44.880Z,2.70
2022-11-03T17:17:12.605Z,2.17
2022-11-03T17:19:40.410Z,2.07
2022-11-03T17:22:08.169Z,2.87
2022-11-03T17:24:35.934Z,2.10
2022-11-03T17:27:07.756Z,2.63
2022-11-03T17:29:37.583Z,2.43
2022-11-03T17:32:08.336Z,2.50
2022-11-03T17:34:36.240Z,2.63
2022-11-03T17:37:04.025Z,2.47
2022-11-03T17:39:34.207Z,2.30
2022-11-03T17:42:21.205Z,2.73
2022-11-03T17:44:50.840Z,2.97
2022-11-03T17:47:20.074Z,3.00
2022-11-03T17:49:49.041Z,2.20
2022-11-03T17:52:24.862Z,2.27
2022-11-03T17:54:58.144Z,1.80
2022-11-03T17:57:27.896Z,2.50
2022-11-03T17:59:58.301Z,2.70
2022-11-03T18:02:27.764Z,2.67
2022-11-03T18:05:18.455Z,2.83
2022-11-03T18:07:49.379Z,3.50
2022-11-03T18:10:17.899Z,2.37
2022-11-03T18:13:06.501Z,2.70
2022-11-03T18:15:36.728Z,2.63
2022-11-03T18:18:16.576Z,3.10
2022-11-03T18:20:53.136Z,3.00
2022-11-03T18:23:23.100Z,2.37
2022-11-03T18:25:51.162Z,2.43
2022-11-03T18:28:20.564Z,3.70
2022-11-03T18:30:50.613Z,2.50
2022-11-03T18:33:23.237Z,2.47
2022-11-03T18:35:51.209Z,2.80
2022-11-03T18:38:19.211Z,2.87
2022-11-03T18:40:47.013Z,2.70
2022-11-03T18:43:16.681Z,2.80
2022-11-03T18:45:46.037Z,2.83
2022-11-03T18:48:19.241Z,2.50
2022-11-03T18:50:49.498Z,3.03
2022-11-03T18:53:19.683Z,3.13
2022-11-03T18:55:48.579Z,3.03
2022-11-03T18:58:18.593Z,3.20
2022-11-03T19:00:47.726Z,3.90
2022-11-03T19:03:17.879Z,3.93
2022-11-03T19:05:46.455Z,3.73
2022-11-03T19:08:21.828Z,3.20
2022-11-03T19:10:50.977Z,3.17
2022-11-03T19:13:26.927Z,3.57
2022-11-03T19:15:56.232Z,3.43
2022-11-03T19:18:24.865Z,4.30
2022-11-03T19:20:52.646Z,4.00
2022-11-03T19:23:20.905Z,3.50
2022-11-03T19:25:49.905Z,2.60
2022-11-03T19:28:21.563Z,2.73
2022-11-03T19:30:51.847Z,3.33
2022-11-03T19:33:27.589Z,2.70
2022-11-03T19:35:55.392Z,2.90
2022-11-03T19:38:23.205Z,3.00
2022-11-03T19:41:08.454Z,2.77
2022-11-03T19:43:36.324Z,3.27
2022-11-03T19:46:05.730Z,3.10
2022-11-03T19:48:35.469Z,3.23
2022-11-03T19:51:06.069Z,2.70
2022-11-03T19:53:34.213Z,3.10
2022-11-03T19:56:02.403Z,2.70
2022-11-03T19:58:30.767Z,2.53
2022-11-03T20:01:02.807Z,2.67
2022-11-03T20:03:34.941Z,2.70
2022-11-03T20:06:02.804Z,3.00
2022-11-03T20:08:32.489Z,2.77
2022-11-03T20:11:00.443Z,2.67
2022-11-03T20:13:33.921Z,3.40
2022-11-03T20:16:01.769Z,3.40
2022-11-03T20:18:29.542Z,3.50
2022-11-03T20:20:59.259Z,3.10
2022-11-03T20:23:29.787Z,3.20
2022-11-03T20:25:57.936Z,2.67
2022-11-03T20:28:28.573Z,3.20
2022-11-03T20:30:57.117Z,2.90
2022-11-03T20:33:26.229Z,2.83
2022-11-03T20:35:55.826Z,2.40
2022-11-03T20:38:26.347Z,2.93
2022-11-03T20:40:58.534Z,3.33
2022-11-03T20:43:28.503Z,2.80
2022-11-03T20:45:56.520Z,2.90
2022-11-03T20:48:24.578Z,3.23
2022-11-03T20:50:53.302Z,3.10
2022-11-03T20:53:23.267Z,3.10
2022-11-03T20:55:53.153Z,3.30
2022-11-03T20:58:21.700Z,2.77
2022-11-03T21:00:50.397Z,3.07
2022-11-03T21:03:37.882Z,2.90
2022-11-03T21:06:10.319Z,2.93
2022-11-03T21:08:38.015Z,3.10
2022-11-03T21:11:28.330Z,2.90
2022-11-03T21:13:57.956Z,3.27
2022-11-03T21:16:44.005Z,2.87
2022-11-03T21:19:37.013Z,3.07
2022-11-03T21:22:30.823Z,3.20
2022-11-03T21:25:02.127Z,2.80
2022-11-03T21:27:31.385Z,3.10
2022-11-03T21:29:59.965Z,3.10
2022-11-03T21:32:28.355Z,3.47
2022-11-03T21:34:57.202Z,3.27
2022-11-03T21:37:24.926Z,3.10
2022-11-03T21:39:52.669Z,3.03
2022-11-03T21:42:37.799Z,2.90
2022-11-03T21:45:07.989Z,3.50
2022-11-03T21:47:35.691Z,3.40
2022-11-03T21:50:02.706Z,2.70
2022-11-03T21:52:33.343Z,3.70
2022-11-03T21:55:02.340Z,3.77
2022-11-03T21:57:30.183Z,3.40
2022-11-03T21:59:59.177Z,3.27
2022-11-03T22:02:30.117Z,4.00
2022-11-03T22:04:58.585Z,3.63
2022-11-03T22:07:26.422Z,4.63
2022-11-03T22:09:54.154Z,3.63
2022-11-03T22:12:21.921Z,4.10
2022-11-03T22:15:07.366Z,3.73
2022-11-03T22:17:36.443Z,4.07
2022-11-03T22:20:22.017Z,4.80
2022-11-03T22:23:07.392Z,4.67
2022-11-03T22:25:52.629Z,3.93
2022-11-03T22:28:21.253Z,4.00
2022-11-03T22:31:18.132Z,4.40
2022-11-03T22:34:04.397Z,4.03
2022-11-03T22:36:32.129Z,4.00
2022-11-03T22:39:17.399Z,4.17
2022-11-03T22:42:14.153Z,3.50
2022-11-03T22:45:07.727Z,3.83
2022-11-03T22:47:35.478Z,3.47
2022-11-03T22:50:04.752Z,3.57
2022-11-03T22:52:32.564Z,3.97
2022-11-03T22:54:59.296Z,3.63
2022-11-03T22:57:27.008Z,3.60
2022-11-03T22:59:54.706Z,3.53
2022-11-03T23:02:22.468Z,4.30
2022-11-03T23:04:50.179Z,4.47
2022-11-03T23:07:19.270Z,4.43
2022-11-03T23:09:46.996Z,4.17
2022-11-03T23:12:14.815Z,3.77
2022-11-03T23:15:00.116Z,3.80
2022-11-03T23:17:48.204Z,3.60
2022-11-03T23:20:33.375Z,4.13
2022-11-03T23:23:02.459Z,3.50
2022-11-03T23:25:29.209Z,3.33
2022-11-03T23:27:56.938Z,3.70
2022-11-03T23:30:24.903Z,3.50
2022-11-03T23:32:52.588Z,3.40
2022-11-03T23:35:20.614Z,3.43
2022-11-03T23:37:48.299Z,4.00
2022-11-03T23:40:20.497Z,4.17
2022-11-03T23:42:49.345Z,3.80
2022-11-03T23:45:39.852Z,3.50
2022-11-03T23:48:25.317Z,3.70
2022-11-03T23:50:53.804Z,3.73
2022-11-03T23:53:21.516Z,3.57
2022-11-03T23:56:04.487Z,3.83
2022-11-03T23:58:32.199Z,3.40
